createdAt,value
2023-01-20T00:01:18.453Z,100615.09
2023-01-20T00:03:45.692Z,100606.41
2023-01-20T00:06:12.464Z,100604.94
2023-01-20T00:08:38.890Z,100602.03
2023-01-20T00:11:07.155Z,100605.72
2023-01-20T00:13:34.647Z,100607.59
2023-01-20T00:16:10.412Z,100606.16
2023-01-20T00:18:37.200Z,100612.69
2023-01-20T00:21:12.189Z,100611.28
2023-01-20T00:23:40.193Z,100609.84
2023-01-20T00:26:09.302Z,100613.94
2023-01-20T00:28:36.213Z,100614.34
2023-01-20T00:31:13.151Z,100617.72
2023-01-20T00:33:40.022Z,100622.63
2023-01-20T00:36:07.283Z,100620.56
2023-01-20T00:38:33.768Z,100624.06
2023-01-20T00:41:00.373Z,100626.28
2023-01-20T00:43:27.090Z,100625.47
2023-01-20T00:45:53.563Z,100637.84
2023-01-20T00:48:19.904Z,100640.94
2023-01-20T00:50:46.286Z,100635.41
2023-01-20T00:53:13.693Z,100647.94
2023-01-20T00:55:40.413Z,100644.63
2023-01-20T00:58:06.813Z,100642.38
2023-01-20T01:00:33.364Z,100643.56
2023-01-20T01:02:59.860Z,100648.94
2023-01-20T01:05:26.182Z,100649.78
2023-01-20T01:07:52.688Z,100648.25
2023-01-20T01:10:19.258Z,100650.94
2023-01-20T01:12:45.607Z,100658.38
2023-01-20T01:15:12.664Z,100659.47
2023-01-20T01:17:39.306Z,100667.91
2023-01-20T01:20:06.249Z,100665.44
2023-01-20T01:22:33.087Z,100666.72
2023-01-20T01:24:59.519Z,100668.19
2023-01-20T01:27:28.135Z,100674.56
2023-01-20T01:29:55.681Z,100677.44
2023-01-20T01:32:22.913Z,100680.81
2023-01-20T01:34:49.378Z,100683.31
2023-01-20T01:37:16.302Z,100683.28
2023-01-20T01:39:42.713Z,100684.69
2023-01-20T01:42:18.508Z,100687.38
2023-01-20T01:45:27.857Z,100682.22
2023-01-20T01:47:58.919Z,100686.13
2023-01-20T01:50:45.598Z,100684.84
2023-01-20T01:53:13.714Z,100686.53
2023-01-20T01:55:45.892Z,100693.75
2023-01-20T01:58:16.655Z,100688.75
2023-01-20T02:00:44.107Z,100698.47
2023-01-20T02:03:11.544Z,100702.75
2023-01-20T02:05:39.413Z,100701.72
2023-01-20T02:08:08.025Z,100700.47
2023-01-20T02:10:34.529Z,100705.44
2023-01-20T02:13:01.539Z,100703.56
2023-01-20T02:15:35.134Z,100707.88
2023-01-20T02:18:21.876Z,100704.19
2023-01-20T02:20:57.078Z,100706.22
2023-01-20T02:24:09.622Z,100702.06
2023-01-20T02:26:42.309Z,100700.88
2023-01-20T02:29:30.028Z,100713.06
2023-01-20T02:32:22.977Z,100710.19
2023-01-20T02:35:03.073Z,100719.41
2023-01-20T02:37:37.813Z,100716.19
2023-01-20T02:40:17.497Z,100727.53
2023-01-20T02:42:54.297Z,100721.28
2023-01-20T02:45:31.818Z,100723.91
2023-01-20T02:48:35.303Z,100724.47
2023-01-20T02:51:07.690Z,100728.00
2023-01-20T02:53:43.608Z,100737.88
2023-01-20T02:56:12.554Z,100737.84
2023-01-20T02:58:55.479Z,100734.34
2023-01-20T03:01:32.105Z,100746.25
2023-01-20T03:04:02.287Z,100744.16
2023-01-20T03:06:36.562Z,100742.38
2023-01-20T03:09:07.589Z,100746.56
2023-01-20T03:11:38.192Z,100741.59
2023-01-20T03:14:08.767Z,100751.56
2023-01-20T03:16:35.600Z,100749.31
2023-01-20T03:19:02.396Z,100756.13
2023-01-20T03:21:28.837Z,100752.00
2023-01-20T03:24:00.461Z,100758.19
2023-01-20T03:26:26.966Z,100755.75
2023-01-20T03:28:54.649Z,100759.63
2023-01-20T03:31:22.849Z,100766.47
2023-01-20T03:33:53.122Z,100765.59
2023-01-20T03:36:21.881Z,100760.47
2023-01-20T03:38:49.607Z,100760.72
2023-01-20T03:41:50.982Z,100758.03
2023-01-20T03:44:43.650Z,100770.56
2023-01-20T03:47:43.107Z,100767.50
2023-01-20T03:50:21.489Z,100768.63
2023-01-20T03:52:53.504Z,100764.31
2023-01-20T03:55:33.636Z,100767.63
2023-01-20T03:58:08.925Z,100768.53
2023-01-20T04:00:39.753Z,100771.00
2023-01-20T04:03:12.420Z,100773.47
2023-01-20T04:05:40.132Z,100772.16
2023-01-20T04:08:09.893Z,100778.84
2023-01-20T04:10:41.068Z,100779.00
2023-01-20T04:13:07.643Z,100775.50
2023-01-20T04:15:40.150Z,100778.31
2023-01-20T04:18:21.797Z,100773.66
2023-01-20T04:20:51.714Z,100781.19
2023-01-20T04:23:27.550Z,100777.72
2023-01-20T04:25:53.930Z,100779.31
2023-01-20T04:28:20.333Z,100783.84
2023-01-20T04:30:46.886Z,100786.81
2023-01-20T04:33:13.440Z,100782.19
2023-01-20T04:35:40.848Z,100785.44
2023-01-20T04:38:07.312Z,100788.00
2023-01-20T04:40:33.884Z,100789.81
2023-01-20T04:43:00.227Z,100797.44
2023-01-20T04:45:26.694Z,100794.84
2023-01-20T04:47:53.326Z,100794.31
2023-01-20T04:50:19.817Z,100795.22
2023-01-20T04:52:46.246Z,100798.13
2023-01-20T04:55:13.048Z,100803.94
2023-01-20T04:57:40.193Z,100806.63
2023-01-20T05:00:07.547Z,100807.84
2023-01-20T05:02:34.077Z,100806.44
2023-01-20T05:05:00.518Z,100810.78
2023-01-20T05:07:26.940Z,100809.75
2023-01-20T05:09:53.391Z,100816.00
2023-01-20T05:12:19.842Z,100811.03
2023-01-20T05:14:46.340Z,100814.47
2023-01-20T05:17:12.722Z,100810.97
2023-01-20T05:19:39.055Z,100814.22
2023-01-20T05:22:05.538Z,100819.66
2023-01-20T05:24:31.914Z,100820.25
2023-01-20T05:27:01.539Z,100822.78
2023-01-20T05:29:29.106Z,100821.28
2023-01-20T05:31:55.573Z,100818.94
2023-01-20T05:34:22.054Z,100829.28
2023-01-20T05:36:54.870Z,100831.53
2023-01-20T05:39:21.803Z,100836.31
2023-01-20T05:41:49.428Z,100841.69
2023-01-20T05:44:16.367Z,100844.22
2023-01-20T05:46:42.837Z,100847.91
2023-01-20T05:49:12.356Z,100852.28
2023-01-20T05:51:38.756Z,100854.22
2023-01-20T05:54:05.249Z,100859.41
2023-01-20T05:56:31.730Z,100859.84
2023-01-20T05:58:58.118Z,100864.91
2023-01-20T06:01:24.809Z,100862.88
2023-01-20T06:03:51.266Z,100861.06
2023-01-20T06:06:18.415Z,100864.69
2023-01-20T06:08:45.394Z,100863.53
2023-01-20T06:11:13.691Z,100868.16
2023-01-20T06:13:40.197Z,100877.00
2023-01-20T06:16:07.521Z,100866.41
2023-01-20T06:18:34.461Z,100870.34
2023-01-20T06:21:01.048Z,100868.69
2023-01-20T06:23:27.706Z,100868.69
2023-01-20T06:26:12.922Z,100877.59
2023-01-20T06:28:39.949Z,100883.00
2023-01-20T06:31:16.900Z,100889.09
2023-01-20T06:33:43.780Z,100885.16
2023-01-20T06:36:13.654Z,100879.56
2023-01-20T06:38:40.609Z,100883.53
2023-01-20T06:41:10.529Z,100886.66
2023-01-20T06:43:40.087Z,100892.69
2023-01-20T06:46:09.791Z,100891.84
2023-01-20T06:48:37.152Z,100896.16
2023-01-20T06:51:06.117Z,100889.28
2023-01-20T06:53:32.678Z,100901.00
2023-01-20T06:56:00.585Z,100901.28
2023-01-20T06:58:30.530Z,100900.38
2023-01-20T07:01:06.960Z,100906.31
2023-01-20T07:03:33.468Z,100913.03
2023-01-20T07:06:02.185Z,100911.69
2023-01-20T07:08:29.488Z,100909.44
2023-01-20T07:10:56.102Z,100920.09
2023-01-20T07:13:22.744Z,100920.28
2023-01-20T07:15:49.133Z,100923.25
2023-01-20T07:18:15.639Z,100935.31
2023-01-20T07:20:43.837Z,100940.09
2023-01-20T07:23:10.314Z,100937.22
2023-01-20T07:25:38.065Z,100942.88
2023-01-20T07:28:04.924Z,100940.72
2023-01-20T07:30:31.628Z,100940.56
2023-01-20T07:32:58.198Z,100942.59
2023-01-20T07:35:24.628Z,100948.41
2023-01-20T07:37:51.098Z,100957.75
2023-01-20T07:40:17.878Z,100952.78
2023-01-20T07:42:44.332Z,100957.09
2023-01-20T07:45:10.976Z,100958.59
2023-01-20T07:47:37.358Z,100963.84
2023-01-20T07:50:04.222Z,100972.25
2023-01-20T07:52:30.570Z,100968.84
2023-01-20T07:54:57.139Z,100968.66
2023-01-20T07:57:23.790Z,100969.09
2023-01-20T07:59:50.139Z,100965.66
2023-01-20T08:02:16.602Z,100972.41
2023-01-20T08:04:43.212Z,100975.97
2023-01-20T08:07:09.762Z,100981.75
2023-01-20T08:09:36.105Z,100997.00
2023-01-20T08:12:02.675Z,100999.31
2023-01-20T08:14:29.080Z,101005.31
2023-01-20T08:16:55.612Z,101004.50
2023-01-20T08:19:22.026Z,101007.09
2023-01-20T08:21:48.454Z,101005.97
2023-01-20T08:24:15.009Z,101004.22
2023-01-20T08:26:41.359Z,101007.72
2023-01-20T08:29:09.919Z,101004.84
2023-01-20T08:31:37.150Z,101012.91
2023-01-20T08:34:04.343Z,101013.53
2023-01-20T08:36:33.218Z,101011.78
2023-01-20T08:39:02.751Z,101018.91
2023-01-20T08:41:35.198Z,101018.38
2023-01-20T08:44:04.400Z,101018.06
2023-01-20T08:46:31.821Z,101024.00
2023-01-20T08:48:58.338Z,101018.63
2023-01-20T08:51:30.078Z,101026.94
2023-01-20T08:53:56.816Z,101027.41
2023-01-20T08:56:23.247Z,101023.53
2023-01-20T08:58:49.784Z,101017.25
2023-01-20T09:01:19.770Z,101020.66
2023-01-20T09:04:02.970Z,101021.38
2023-01-20T09:06:36.656Z,101029.53
2023-01-20T09:09:04.589Z,101020.91
2023-01-20T09:11:31.792Z,101024.41
2023-01-20T09:13:58.257Z,101022.53
2023-01-20T09:16:24.770Z,101020.06
2023-01-20T09:18:51.147Z,101024.50
2023-01-20T09:21:17.527Z,101022.66
2023-01-20T09:23:43.918Z,101022.47
2023-01-20T09:26:10.630Z,101022.78
2023-01-20T09:28:37.053Z,101021.81
2023-01-20T09:31:06.608Z,101020.59
2023-01-20T09:33:36.077Z,101025.59
2023-01-20T09:36:03.371Z,101028.72
2023-01-20T09:38:48.536Z,101032.81
2023-01-20T09:41:43.958Z,101035.09
2023-01-20T09:44:23.130Z,101045.72
2023-01-20T09:47:19.472Z,101041.72
2023-01-20T09:50:19.929Z,101039.78
2023-01-20T09:53:02.598Z,101041.41
2023-01-20T09:55:51.490Z,101034.28
2023-01-20T09:58:45.043Z,101030.09
2023-01-20T10:01:18.422Z,101025.75
2023-01-20T10:03:55.803Z,101028.88
2023-01-20T10:07:03.235Z,101034.28
2023-01-20T10:09:57.215Z,101033.13
2023-01-20T10:12:41.059Z,101041.03
2023-01-20T10:15:24.510Z,101043.13
2023-01-20T10:17:56.603Z,101049.47
2023-01-20T10:20:52.574Z,101034.78
2023-01-20T10:23:26.237Z,101039.78
2023-01-20T10:26:09.386Z,101038.84
2023-01-20T10:28:40.479Z,101041.75
2023-01-20T10:31:07.165Z,101045.34
2023-01-20T10:33:42.016Z,101046.75
2023-01-20T10:36:15.163Z,101040.34
2023-01-20T10:38:55.704Z,101050.41
2023-01-20T10:41:31.107Z,101044.69
2023-01-20T10:43:59.330Z,101037.50
2023-01-20T10:46:50.610Z,101038.09
2023-01-20T10:49:34.197Z,101028.84
2023-01-20T10:52:18.840Z,101030.88
2023-01-20T10:55:02.277Z,101023.28
2023-01-20T10:57:28.700Z,101024.00
2023-01-20T11:00:02.207Z,101032.09
2023-01-20T11:02:37.886Z,101030.50
2023-01-20T11:05:25.648Z,101031.00
2023-01-20T11:07:53.881Z,101030.06
2023-01-20T11:10:29.321Z,101027.63
2023-01-20T11:12:59.674Z,101028.47
2023-01-20T11:15:32.427Z,101028.00
2023-01-20T11:18:13.853Z,101030.38
2023-01-20T11:20:47.340Z,101028.75
2023-01-20T11:23:32.297Z,101030.47
2023-01-20T11:26:11.269Z,101033.84
2023-01-20T11:28:47.835Z,101029.06
2023-01-20T11:31:15.846Z,101031.75
2023-01-20T11:33:59.278Z,101037.56
2023-01-20T11:36:27.012Z,101030.56
2023-01-20T11:38:56.195Z,101030.38
2023-01-20T11:41:30.876Z,101022.78
2023-01-20T11:43:59.773Z,101021.97
2023-01-20T11:46:32.737Z,101022.63
2023-01-20T11:49:14.259Z,101025.91
2023-01-20T11:51:55.636Z,101022.13
2023-01-20T11:54:28.345Z,101026.03
2023-01-20T11:57:04.737Z,101021.59
2023-01-20T11:59:34.879Z,101018.66
2023-01-20T12:02:23.612Z,101020.03
2023-01-20T12:05:23.096Z,101018.34
2023-01-20T12:07:52.377Z,101018.59
2023-01-20T12:10:32.099Z,101032.09
2023-01-20T12:13:05.452Z,101019.59
2023-01-20T12:15:34.909Z,101021.13
2023-01-20T12:19:01.220Z,101026.09
2023-01-20T12:21:38.509Z,101023.84
2023-01-20T12:24:11.703Z,101022.38
2023-01-20T12:26:38.105Z,101028.09
2023-01-20T12:29:23.403Z,101023.91
2023-01-20T12:31:50.246Z,101027.16
2023-01-20T12:34:26.494Z,101029.91
2023-01-20T12:37:27.996Z,101026.84
2023-01-20T12:40:05.225Z,101027.47
2023-01-20T12:43:16.159Z,101032.72
2023-01-20T12:46:03.705Z,101029.78
2023-01-20T12:48:51.738Z,101038.09
2023-01-20T12:51:27.074Z,101034.28
2023-01-20T12:54:02.965Z,101033.50
2023-01-20T12:56:53.359Z,101040.53
2023-01-20T12:59:48.657Z,101032.72
2023-01-20T13:02:37.275Z,101032.34
2023-01-20T13:05:34.052Z,101029.78
2023-01-20T13:08:16.006Z,101036.66
2023-01-20T13:10:51.186Z,101040.19
2023-01-20T13:13:55.839Z,101045.56
2023-01-20T13:16:35.727Z,101046.50
2023-01-20T13:19:27.564Z,101052.16
2023-01-20T13:22:07.388Z,101051.97
2023-01-20T13:24:35.089Z,101052.25
2023-01-20T13:27:02.767Z,101056.72
2023-01-20T13:29:42.809Z,101049.63
2023-01-20T13:32:28.972Z,101047.63
2023-01-20T13:34:55.829Z,101047.44
2023-01-20T13:37:26.608Z,101054.50
2023-01-20T13:39:54.983Z,101051.63
2023-01-20T13:42:36.590Z,101051.50
2023-01-20T13:45:12.602Z,101049.44
2023-01-20T13:48:21.501Z,101056.84
2023-01-20T13:50:50.318Z,101062.97
2023-01-20T13:53:22.749Z,101057.78
2023-01-20T13:55:51.813Z,101063.09
2023-01-20T13:58:28.779Z,101061.41
2023-01-20T14:01:00.442Z,101066.59
2023-01-20T14:03:38.026Z,101061.41
2023-01-20T14:06:07.696Z,101065.13
2023-01-20T14:08:38.820Z,101069.28
2023-01-20T14:11:17.971Z,101078.91
2023-01-20T14:14:02.561Z,101077.91
2023-01-20T14:16:36.768Z,101083.34
2023-01-20T14:19:35.434Z,101083.81
2023-01-20T14:22:16.299Z,101083.81
2023-01-20T14:24:45.639Z,101082.72
2023-01-20T14:27:29.551Z,101092.25
2023-01-20T14:29:59.741Z,101094.38
2023-01-20T14:32:34.868Z,101092.25
2023-01-20T14:35:04.186Z,101099.66
2023-01-20T14:37:40.768Z,101090.97
2023-01-20T14:40:09.822Z,101099.84
2023-01-20T14:42:38.697Z,101109.28
2023-01-20T14:45:18.950Z,101101.72
2023-01-20T14:47:45.975Z,101102.72
2023-01-20T14:50:15.715Z,101110.78
2023-01-20T14:52:42.991Z,101105.06
2023-01-20T14:55:35.899Z,101106.16
2023-01-20T14:58:08.455Z,101120.66
2023-01-20T15:00:35.381Z,101120.75
2023-01-20T15:03:14.129Z,101117.72
2023-01-20T15:05:51.661Z,101120.75
2023-01-20T15:08:25.247Z,101125.00
2023-01-20T15:11:10.224Z,101121.13
2023-01-20T15:13:38.105Z,101127.06
2023-01-20T15:16:25.557Z,101130.38
2023-01-20T15:19:14.485Z,101125.91
2023-01-20T15:21:52.318Z,101135.63
2023-01-20T15:24:20.465Z,101140.34
2023-01-20T15:26:50.058Z,101135.00
2023-01-20T15:29:35.589Z,101145.72
2023-01-20T15:32:10.330Z,101142.75
2023-01-20T15:34:36.718Z,101150.72
2023-01-20T15:37:11.505Z,101153.47
2023-01-20T15:39:38.074Z,101162.16
2023-01-20T15:42:06.265Z,101162.47
2023-01-20T15:44:32.642Z,101168.47
2023-01-20T15:46:59.122Z,101177.63
2023-01-20T15:49:25.763Z,101178.00
2023-01-20T15:51:52.609Z,101179.00
2023-01-20T15:54:19.224Z,101193.06
2023-01-20T15:56:45.613Z,101185.56
2023-01-20T15:59:13.110Z,101188.44
2023-01-20T16:01:39.966Z,101188.09
2023-01-20T16:04:06.553Z,101198.88
2023-01-20T16:06:34.171Z,101197.25
2023-01-20T16:09:01.879Z,101206.19
2023-01-20T16:11:28.307Z,101212.56
2023-01-20T16:13:54.863Z,101223.13
2023-01-20T16:16:23.766Z,101222.28
2023-01-20T16:18:50.324Z,101226.34
2023-01-20T16:21:19.074Z,101225.31
2023-01-20T16:23:45.662Z,101228.94
2023-01-20T16:26:22.940Z,101239.75
2023-01-20T16:28:54.426Z,101234.19
2023-01-20T16:31:21.993Z,101231.72
2023-01-20T16:33:48.627Z,101233.38
2023-01-20T16:36:17.488Z,101239.38
2023-01-20T16:38:44.917Z,101245.47
2023-01-20T16:41:21.211Z,101245.16
2023-01-20T16:43:47.890Z,101242.78
2023-01-20T16:46:21.017Z,101241.78
2023-01-20T16:48:47.666Z,101251.47
2023-01-20T16:51:18.833Z,101249.84
2023-01-20T16:53:45.553Z,101253.22
2023-01-20T16:56:16.140Z,101253.28
2023-01-20T16:58:43.563Z,101270.09
2023-01-20T17:01:13.090Z,101263.44
2023-01-20T17:03:43.079Z,101268.78
2023-01-20T17:06:18.177Z,101278.50
2023-01-20T17:08:50.620Z,101272.94
2023-01-20T17:11:21.989Z,101284.88
2023-01-20T17:13:48.572Z,101286.31
2023-01-20T17:16:15.693Z,101286.78
2023-01-20T17:18:45.273Z,101292.59
2023-01-20T17:21:12.910Z,101292.97
2023-01-20T17:23:40.216Z,101299.16
2023-01-20T17:26:08.462Z,101302.25
2023-01-20T17:28:35.586Z,101308.56
2023-01-20T17:31:04.213Z,101312.28
2023-01-20T17:33:31.213Z,101313.81
2023-01-20T17:35:59.609Z,101312.13
2023-01-20T17:38:28.811Z,101313.03
2023-01-20T17:41:00.480Z,101320.56
2023-01-20T17:43:34.734Z,101331.78
2023-01-20T17:46:01.858Z,101329.97
2023-01-20T17:48:28.365Z,101333.31
2023-01-20T17:50:59.512Z,101342.69
2023-01-20T17:53:26.805Z,101338.53
2023-01-20T17:56:03.077Z,101346.03
2023-01-20T17:58:37.877Z,101347.84
2023-01-20T18:01:15.609Z,101353.03
2023-01-20T18:03:43.591Z,101367.25
2023-01-20T18:06:12.348Z,101359.03
2023-01-20T18:08:39.247Z,101370.78
2023-01-20T18:11:09.249Z,101374.78
2023-01-20T18:13:36.365Z,101377.16
2023-01-20T18:16:07.186Z,101382.88
2023-01-20T18:18:33.889Z,101380.34
2023-01-20T18:21:15.685Z,101391.94
2023-01-20T18:23:43.319Z,101396.47
2023-01-20T18:26:11.281Z,101385.97
2023-01-20T18:28:37.958Z,101391.66
2023-01-20T18:31:19.305Z,101391.63
2023-01-20T18:33:48.153Z,101391.69
2023-01-20T18:36:23.602Z,101400.56
2023-01-20T18:38:59.439Z,101401.41
2023-01-20T18:41:30.430Z,101402.09
2023-01-20T18:43:57.767Z,101408.47
2023-01-20T18:46:25.666Z,101406.94
2023-01-20T18:48:54.577Z,101412.13
2023-01-20T18:51:27.332Z,101413.00
2023-01-20T18:54:07.373Z,101417.19
2023-01-20T18:56:34.472Z,101418.88
2023-01-20T18:59:02.241Z,101420.91
2023-01-20T19:01:33.636Z,101426.91
2023-01-20T19:04:04.387Z,101425.91
2023-01-20T19:06:34.762Z,101426.56
2023-01-20T19:09:01.617Z,101424.25
2023-01-20T19:11:31.425Z,101425.06
2023-01-20T19:13:58.962Z,101429.59
2023-01-20T19:16:32.477Z,101432.28
2023-01-20T19:19:01.633Z,101435.97
2023-01-20T19:21:31.436Z,101441.97
2023-01-20T19:24:01.322Z,101446.00
2023-01-20T19:26:27.998Z,101449.34
2023-01-20T19:29:02.515Z,101450.00
2023-01-20T19:31:30.970Z,101464.88
2023-01-20T19:33:58.131Z,101469.41
2023-01-20T19:36:24.874Z,101477.06
2023-01-20T19:38:54.232Z,101471.56
2023-01-20T19:41:23.492Z,101474.06
2023-01-20T19:43:57.512Z,101480.94
2023-01-20T19:46:26.982Z,101485.44
2023-01-20T19:48:55.551Z,101486.28
2023-01-20T19:51:22.196Z,101501.50
2023-01-20T19:53:50.164Z,101505.31
2023-01-20T19:56:18.431Z,101506.50
2023-01-20T19:58:46.324Z,101508.19
2023-01-20T20:01:18.046Z,101503.81
2023-01-20T20:03:44.657Z,101508.81
2023-01-20T20:06:38.035Z,101512.81
2023-01-20T20:09:06.691Z,101516.53
2023-01-20T20:11:33.999Z,101521.88
2023-01-20T20:14:02.326Z,101524.38
2023-01-20T20:16:30.507Z,101526.53
2023-01-20T20:18:57.743Z,101533.56
2023-01-20T20:21:24.570Z,101532.22
2023-01-20T20:23:53.128Z,101542.75
2023-01-20T20:26:21.022Z,101547.94
2023-01-20T20:28:47.478Z,101556.47
2023-01-20T20:31:17.155Z,101557.44
2023-01-20T20:33:45.401Z,101557.97
2023-01-20T20:36:12.486Z,101570.31
2023-01-20T20:38:38.974Z,101564.13
2023-01-20T20:41:10.347Z,101567.34
2023-01-20T20:43:38.027Z,101582.03
2023-01-20T20:46:06.814Z,101579.34
2023-01-20T20:48:34.028Z,101587.38
2023-01-20T20:51:07.835Z,101586.06
2023-01-20T20:53:35.142Z,101591.72
2023-01-20T20:56:04.109Z,101599.75
2023-01-20T20:58:31.683Z,101605.63
2023-01-20T21:01:01.109Z,101610.44
2023-01-20T21:03:27.767Z,101616.66
2023-01-20T21:05:54.202Z,101630.19
2023-01-20T21:08:20.806Z,101623.66
2023-01-20T21:10:47.324Z,101632.50
2023-01-20T21:13:13.650Z,101639.38
2023-01-20T21:15:40.029Z,101644.38
2023-01-20T21:18:06.365Z,101651.91
2023-01-20T21:20:33.518Z,101651.59
2023-01-20T21:23:01.445Z,101654.06
2023-01-20T21:25:27.825Z,101654.75
2023-01-20T21:27:54.260Z,101659.59
2023-01-20T21:30:20.861Z,101666.59
2023-01-20T21:32:47.250Z,101668.22
2023-01-20T21:35:13.733Z,101666.53
2023-01-20T21:37:40.113Z,101673.22
2023-01-20T21:40:07.091Z,101671.91
2023-01-20T21:42:33.514Z,101682.28
2023-01-20T21:44:59.970Z,101677.94
2023-01-20T21:47:26.460Z,101679.63
2023-01-20T21:50:11.389Z,101685.69
2023-01-20T21:52:45.234Z,101687.41
2023-01-20T21:55:13.308Z,101687.69
2023-01-20T21:57:39.682Z,101691.97
2023-01-20T22:00:08.861Z,101691.25
2023-01-20T22:02:35.779Z,101691.94
2023-01-20T22:05:02.166Z,101696.88
2023-01-20T22:07:28.581Z,101700.84
2023-01-20T22:09:57.949Z,101702.84
2023-01-20T22:12:24.656Z,101705.38
2023-01-20T22:14:50.994Z,101712.91
2023-01-20T22:17:17.539Z,101709.09
2023-01-20T22:19:43.922Z,101722.72
2023-01-20T22:22:10.746Z,101722.25
2023-01-20T22:24:37.252Z,101726.44
2023-01-20T22:27:03.699Z,101729.09
2023-01-20T22:29:30.382Z,101741.16
2023-01-20T22:31:59.389Z,101749.34
2023-01-20T22:34:26.326Z,101748.75
2023-01-20T22:36:55.614Z,101755.63
2023-01-20T22:39:22.144Z,101752.50
2023-01-20T22:41:48.477Z,101759.34
2023-01-20T22:44:14.847Z,101757.50
2023-01-20T22:46:41.312Z,101757.84
2023-01-20T22:49:07.829Z,101758.78
2023-01-20T22:51:34.274Z,101771.47
2023-01-20T22:54:01.754Z,101771.16
2023-01-20T22:56:31.358Z,101772.84
2023-01-20T22:58:59.000Z,101781.19
2023-01-20T23:01:32.450Z,101775.75
2023-01-20T23:04:01.137Z,101789.06
2023-01-20T23:06:28.915Z,101788.72
2023-01-20T23:08:55.366Z,101801.69
2023-01-20T23:11:23.048Z,101798.72
2023-01-20T23:13:50.391Z,101812.00
2023-01-20T23:16:19.327Z,101807.78
2023-01-20T23:18:46.745Z,101809.78
2023-01-20T23:21:13.619Z,101808.63
2023-01-20T23:23:40.045Z,101808.34
2023-01-20T23:26:16.687Z,101816.97
2023-01-20T23:28:44.746Z,101821.31
2023-01-20T23:31:14.828Z,101819.31
2023-01-20T23:33:44.132Z,101824.66
2023-01-20T23:36:14.004Z,101819.44
2023-01-20T23:38:41.460Z,101829.56
2023-01-20T23:41:07.787Z,101826.72
2023-01-20T23:43:34.509Z,101829.72
2023-01-20T23:46:03.497Z,101834.78
2023-01-20T23:48:30.118Z,101839.91
2023-01-20T23:50:59.744Z,101840.47
2023-01-20T23:53:28.287Z,101842.28
2023-01-20T23:56:11.301Z,101850.00
2023-01-20T23:58:37.977Z,101848.00
